Time;durP1;ratioP1;P1;durP2;ratioP2;P2;SDS_P1;SDS_P2;PMS_P1;PMS_P2;Temp;Humidity;BMP_temperature;BMP_pressure;BME280_temperature;BME280_humidity;BME280_pressure;Samples;Min_cycle;Max_cycle;Signal;HPM_P1;HPM_P2
2022/07/27 00:00:08;;;;;;;1.60;1.50;;;;;;;;;;5073915;28;20225;-85
2022/07/27 00:02:35;;;;;;;3.30;1.58;;;;;;;;;;5074030;28;20229;-85
2022/07/27 00:05:02;;;;;;;2.88;1.42;;;;;;;;;;5074344;28;20375;-85
2022/07/27 00:07:29;;;;;;;3.25;1.40;;;;;;;;;;5073271;28;20736;-86
2022/07/27 00:09:57;;;;;;;1.23;1.23;;;;;;;;;;5073994;28;20704;-85
2022/07/27 00:12:24;;;;;;;1.90;1.20;;;;;;;;;;5073214;28;20241;-87
2022/07/27 00:14:52;;;;;;;2.33;1.60;;;;;;;;;;5073565;28;20194;-85
2022/07/27 00:17:22;;;;;;;2.17;1.50;;;;;;;;;;5076526;28;20201;-87
2022/07/27 00:19:49;;;;;;;1.67;1.30;;;;;;;;;;5073248;28;20244;-85
2022/07/27 00:22:17;;;;;;;4.22;1.30;;;;;;;;;;5072834;28;20212;-85
2022/07/27 00:24:44;;;;;;;1.33;1.05;;;;;;;;;;5073393;28;20210;-86
2022/07/27 00:27:13;;;;;;;1.40;1.30;;;;;;;;;;5072737;28;20232;-86
2022/07/27 00:29:40;;;;;;;1.30;1.20;;;;;;;;;;5073100;28;20240;-86
2022/07/27 00:32:08;;;;;;;1.15;1.15;;;;;;;;;;5072714;28;20692;-86
2022/07/27 00:34:35;;;;;;;1.73;1.30;;;;;;;;;;5073316;28;20212;-85
2022/07/27 00:37:02;;;;;;;1.00;1.00;;;;;;;;;;5073134;28;20208;-85
2022/07/27 00:39:29;;;;;;;1.38;1.17;;;;;;;;;;5072645;28;20244;-85
2022/07/27 00:41:56;;;;;;;1.30;1.20;;;;;;;;;;5072999;28;20197;-85
2022/07/27 00:44:28;;;;;;;1.10;1.10;;;;;;;;;;5072579;28;20848;-85
2022/07/27 00:46:55;;;;;;;2.00;1.42;;;;;;;;;;5072434;28;20244;-86
2022/07/27 00:49:23;;;;;;;1.25;1.25;;;;;;;;;;5072469;28;20244;-85
2022/07/27 00:51:50;;;;;;;1.10;1.10;;;;;;;;;;5073030;28;20206;-85
2022/07/27 00:54:18;;;;;;;1.77;1.30;;;;;;;;;;5072508;28;20743;-85
2022/07/27 00:56:45;;;;;;;2.15;1.00;;;;;;;;;;5072769;28;20552;-85
2022/07/27 00:59:12;;;;;;;1.10;1.00;;;;;;;;;;5072190;28;20244;-86
2022/07/27 01:01:41;;;;;;;1.52;0.93;;;;;;;;;;5072697;28;20201;-85
2022/07/27 01:04:08;;;;;;;1.40;1.30;;;;;;;;;;5072190;28;20237;-86
2022/07/27 01:06:36;;;;;;;1.50;1.20;;;;;;;;;;5072915;28;20221;-85
2022/07/27 01:11:48;;;;;;;0.98;0.98;;;;;;;;;;5072754;28;20188;-85
2022/07/27 01:14:16;;;;;;;2.30;1.05;;;;;;;;;;5072404;28;20240;-85
2022/07/27 01:16:45;;;;;;;1.13;1.00;;;;;;;;;;5072874;28;20650;-85
2022/07/27 01:19:13;;;;;;;1.25;1.17;;;;;;;;;;5072033;28;20627;-85
2022/07/27 01:21:42;;;;;;;1.30;1.20;;;;;;;;;;5072859;28;20654;-85
2022/07/27 01:24:09;;;;;;;1.00;1.00;;;;;;;;;;5072446;28;20249;-84
2022/07/27 01:26:36;;;;;;;1.13;1.13;;;;;;;;;;5072444;28;20228;-85
2022/07/27 01:29:03;;;;;;;1.30;1.10;;;;;;;;;;5071973;28;20244;-86
2022/07/27 01:31:31;;;;;;;0.80;0.80;;;;;;;;;;5072450;28;20208;-85
2022/07/27 01:33:59;;;;;;;1.60;0.68;;;;;;;;;;5071938;28;20369;-85
2022/07/27 01:36:26;;;;;;;0.90;0.90;;;;;;;;;;5072534;28;20209;-85
2022/07/27 01:38:55;;;;;;;1.00;1.00;;;;;;;;;;5071923;28;20260;-86
2022/07/27 01:41:22;;;;;;;1.08;0.90;;;;;;;;;;5072497;28;20229;-86
2022/07/27 01:43:49;;;;;;;0.80;0.80;;;;;;;;;;5071712;28;20232;-85
2022/07/27 01:46:16;;;;;;;3.53;0.90;;;;;;;;;;5072641;28;20205;-85
2022/07/27 01:48:43;;;;;;;1.00;0.98;;;;;;;;;;5071705;28;20241;-85
2022/07/27 01:51:10;;;;;;;0.85;0.85;;;;;;;;;;5072144;28;20208;-85
2022/07/27 01:53:37;;;;;;;0.98;0.98;;;;;;;;;;5071790;28;20233;-85
2022/07/27 01:56:09;;;;;;;1.80;1.00;;;;;;;;;;5072668;28;20208;-85
2022/07/27 01:58:37;;;;;;;0.80;0.80;;;;;;;;;;5072291;28;20235;-85
2022/07/27 02:01:04;;;;;;;1.45;0.80;;;;;;;;;;5079924;28;20204;-85
2022/07/27 02:03:31;;;;;;;1.80;0.77;;;;;;;;;;5095880;28;20275;-85
2022/07/27 02:05:58;;;;;;;0.93;0.93;;;;;;;;;;5095918;28;20585;-85
2022/07/27 02:08:28;;;;;;;0.80;0.80;;;;;;;;;;5095637;28;20236;-85
2022/07/27 02:13:46;;;;;;;0.80;0.80;;;;;;;;;;5075544;28;20255;-85
2022/07/27 02:16:13;;;;;;;0.85;0.85;;;;;;;;;;5075796;28;20665;-85
2022/07/27 02:18:40;;;;;;;0.75;0.75;;;;;;;;;;5075251;28;20240;-85
2022/07/27 02:21:07;;;;;;;1.30;0.82;;;;;;;;;;5075809;28;20186;-85
2022/07/27 02:23:34;;;;;;;0.70;0.70;;;;;;;;;;5074971;28;20229;-86
2022/07/27 02:26:02;;;;;;;1.13;0.60;;;;;;;;;;5075667;28;20228;-85
2022/07/27 02:28:29;;;;;;;0.80;0.80;;;;;;;;;;5074737;28;20619;-85
2022/07/27 02:30:57;;;;;;;0.70;0.70;;;;;;;;;;5075697;28;20684;-85
2022/07/27 02:33:24;;;;;;;1.42;0.80;;;;;;;;;;5075066;28;20862;-85
2022/07/27 02:35:51;;;;;;;1.75;0.70;;;;;;;;;;5075379;28;20202;-85
2022/07/27 02:38:19;;;;;;;0.68;0.68;;;;;;;;;;5075142;28;20248;-85
2022/07/27 02:40:46;;;;;;;2.53;0.60;;;;;;;;;;5075641;28;20284;-85
2022/07/27 02:43:13;;;;;;;0.80;0.70;;;;;;;;;;5074712;28;20233;-86
2022/07/27 02:45:40;;;;;;;1.05;0.70;;;;;;;;;;5075296;28;20217;-85
2022/07/27 02:48:08;;;;;;;0.85;0.70;;;;;;;;;;5077651;28;20241;-84
2022/07/27 02:50:35;;;;;;;0.63;0.63;;;;;;;;;;5077179;28;20685;-85
2022/07/27 02:53:02;;;;;;;1.42;0.68;;;;;;;;;;5074724;28;20696;-85
2022/07/27 02:55:29;;;;;;;0.70;0.70;;;;;;;;;;5075239;28;20201;-86
2022/07/27 02:57:56;;;;;;;1.00;0.70;;;;;;;;;;5074678;28;20236;-85
2022/07/27 03:00:23;;;;;;;0.85;0.70;;;;;;;;;;5075060;28;20232;-86
2022/07/27 03:02:51;;;;;;;1.20;0.88;;;;;;;;;;5074671;28;20237;-85
2022/07/27 03:05:19;;;;;;;1.50;0.70;;;;;;;;;;5074737;28;20205;-85
2022/07/27 03:08:08;;;;;;;0.70;0.70;;;;;;;;;;5074426;28;20604;-85
2022/07/27 03:10:35;;;;;;;0.88;0.68;;;;;;;;;;5074546;28;20192;-85
2022/07/27 03:13:02;;;;;;;1.25;0.60;;;;;;;;;;5074386;28;20233;-85
2022/07/27 03:15:29;;;;;;;0.68;0.68;;;;;;;;;;5074638;28;20205;-85
2022/07/27 03:17:56;;;;;;;1.60;0.85;;;;;;;;;;5074228;28;20236;-85
2022/07/27 03:20:25;;;;;;;1.95;1.00;;;;;;;;;;5075073;28;20240;-86
2022/07/27 03:22:53;;;;;;;0.63;0.60;;;;;;;;;;5077041;28;20229;-86
2022/07/27 03:25:20;;;;;;;1.50;0.65;;;;;;;;;;5085494;28;20271;-86
2022/07/27 03:27:47;;;;;;;2.80;0.70;;;;;;;;;;5093583;28;20240;-86
2022/07/27 03:30:14;;;;;;;1.15;0.70;;;;;;;;;;5094554;28;20734;-86
2022/07/27 03:32:41;;;;;;;1.13;0.80;;;;;;;;;;5092868;28;20229;-85
2022/07/27 03:35:08;;;;;;;0.80;0.80;;;;;;;;;;5094257;28;20704;-86
2022/07/27 03:37:37;;;;;;;0.80;0.80;;;;;;;;;;5094000;28;20235;-86
2022/07/27 03:40:04;;;;;;;0.85;0.65;;;;;;;;;;5094146;28;20228;-86
2022/07/27 03:42:31;;;;;;;1.03;0.80;;;;;;;;;;5093596;28;20712;-86
2022/07/27 03:44:58;;;;;;;1.33;0.80;;;;;;;;;;5096389;28;20235;-87
2022/07/27 03:47:25;;;;;;;1.20;0.90;;;;;;;;;;5103971;28;20243;-86
2022/07/27 03:49:52;;;;;;;0.77;0.67;;;;;;;;;;5094427;28;20229;-85
2022/07/27 03:52:19;;;;;;;0.70;0.70;;;;;;;;;;5093769;28;20250;-86
2022/07/27 03:54:48;;;;;;;1.07;1.00;;;;;;;;;;5094234;28;20216;-86
2022/07/27 03:57:15;;;;;;;0.63;0.63;;;;;;;;;;5093896;28;20204;-86
2022/07/27 03:59:42;;;;;;;0.95;0.90;;;;;;;;;;5093652;28;20228;-85
2022/07/27 04:02:09;;;;;;;2.00;0.75;;;;;;;;;;5093671;28;20216;-86
2022/07/27 04:04:36;;;;;;;0.77;0.77;;;;;;;;;;5094727;28;20209;-85
2022/07/27 04:07:03;;;;;;;2.63;1.05;;;;;;;;;;5093995;28;20201;-85
2022/07/27 04:09:30;;;;;;;1.80;0.97;;;;;;;;;;5093962;28;20228;-84
2022/07/27 04:11:59;;;;;;;1.50;1.00;;;;;;;;;;5094111;28;20205;-86
2022/07/27 04:14:26;;;;;;;1.10;1.00;;;;;;;;;;5093520;28;20244;-85
2022/07/27 04:16:53;;;;;;;1.50;1.05;;;;;;;;;;5093953;28;20228;-85
2022/07/27 04:19:20;;;;;;;0.60;0.60;;;;;;;;;;5093298;28;20232;-84
2022/07/27 04:21:47;;;;;;;0.87;0.87;;;;;;;;;;5092911;28;20208;-84
2022/07/27 04:24:14;;;;;;;1.50;1.20;;;;;;;;;;5093325;28;20237;-84
2022/07/27 04:26:41;;;;;;;2.83;0.97;;;;;;;;;;5093885;28;20243;-84
2022/07/27 04:29:09;;;;;;;1.17;0.80;;;;;;;;;;5093153;28;20247;-85
2022/07/27 04:31:36;;;;;;;0.83;0.80;;;;;;;;;;5093470;28;20200;-85
2022/07/27 04:34:03;;;;;;;0.90;0.90;;;;;;;;;;5093871;28;20236;-85
2022/07/27 04:36:31;;;;;;;3.43;1.00;;;;;;;;;;5093764;28;20215;-85
2022/07/27 04:38:58;;;;;;;1.00;0.90;;;;;;;;;;5093060;28;20603;-85
2022/07/27 04:41:25;;;;;;;2.83;0.90;;;;;;;;;;5093257;28;20201;-84
2022/07/27 04:43:52;;;;;;;2.70;1.20;;;;;;;;;;5092784;28;20228;-85
2022/07/27 04:46:20;;;;;;;1.13;1.03;;;;;;;;;;5093515;28;20243;-84
2022/07/27 04:48:47;;;;;;;1.17;1.07;;;;;;;;;;5092627;28;20236;-84
2022/07/27 04:51:15;;;;;;;3.10;0.95;;;;;;;;;;5094760;28;20237;-85
2022/07/27 04:53:42;;;;;;;2.30;0.90;;;;;;;;;;5093432;28;20286;-85
2022/07/27 04:56:09;;;;;;;2.73;1.23;;;;;;;;;;5092923;28;20211;-85
2022/07/27 04:58:37;;;;;;;2.23;1.10;;;;;;;;;;5092711;28;20233;-85
2022/07/27 05:01:04;;;;;;;1.00;1.00;;;;;;;;;;5092945;28;20228;-85
2022/07/27 05:03:33;;;;;;;0.83;0.83;;;;;;;;;;5092566;28;20236;-85
2022/07/27 05:06:00;;;;;;;0.73;0.73;;;;;;;;;;5093564;28;20213;-85
2022/07/27 05:08:27;;;;;;;0.80;0.80;;;;;;;;;;5093462;28;20247;-85
2022/07/27 05:10:54;;;;;;;1.20;1.10;;;;;;;;;;5093994;28;20200;-84
2022/07/27 05:13:21;;;;;;;1.10;1.00;;;;;;;;;;5096967;28;20254;-82
2022/07/27 05:15:48;;;;;;;2.03;1.10;;;;;;;;;;5098887;28;20228;-82
2022/07/27 05:18:15;;;;;;;2.40;1.43;;;;;;;;;;5099704;28;20239;-82
2022/07/27 05:20:44;;;;;;;3.33;0.90;;;;;;;;;;5098847;28;20220;-83
2022/07/27 05:23:11;;;;;;;0.80;0.80;;;;;;;;;;5098691;28;20235;-82
2022/07/27 05:25:38;;;;;;;2.00;1.00;;;;;;;;;;5098093;28;20207;-82
2022/07/27 05:28:06;;;;;;;1.60;1.00;;;;;;;;;;5096385;28;20237;-83
2022/07/27 05:30:33;;;;;;;1.23;0.97;;;;;;;;;;5097947;28;20715;-82
2022/07/27 05:33:00;;;;;;;1.85;1.10;;;;;;;;;;5098875;28;20235;-82
2022/07/27 05:35:27;;;;;;;1.57;1.47;;;;;;;;;;5101467;28;20208;-82
2022/07/27 05:37:55;;;;;;;1.20;1.03;;;;;;;;;;5106308;28;20228;-82
2022/07/27 05:40:23;;;;;;;2.28;0.90;;;;;;;;;;5099349;28;20231;-83
2022/07/27 05:42:50;;;;;;;1.00;1.00;;;;;;;;;;5099160;28;20240;-83
2022/07/27 05:45:18;;;;;;;1.20;0.90;;;;;;;;;;5098737;28;20579;-83
2022/07/27 05:47:45;;;;;;;2.95;0.90;;;;;;;;;;5098515;28;20258;-82
2022/07/27 05:50:12;;;;;;;1.15;1.05;;;;;;;;;;5100033;28;20225;-83
2022/07/27 05:52:39;;;;;;;1.98;1.20;;;;;;;;;;5099115;28;20232;-83
2022/07/27 05:55:08;;;;;;;3.45;0.90;;;;;;;;;;5100273;28;20209;-83
2022/07/27 05:57:35;;;;;;;1.77;0.95;;;;;;;;;;5100708;28;20224;-83
2022/07/27 06:00:04;;;;;;;3.15;1.05;;;;;;;;;;5102962;28;20217;-82
2022/07/27 06:02:32;;;;;;;3.08;0.95;;;;;;;;;;5101498;28;20288;-82
2022/07/27 06:04:59;;;;;;;2.78;0.70;;;;;;;;;;5101073;28;20208;-83
2022/07/27 06:10:13;;;;;;;2.15;0.90;;;;;;;;;;5099689;28;20243;-83
2022/07/27 06:12:40;;;;;;;1.27;1.05;;;;;;;;;;5101170;28;20255;-82
2022/07/27 06:15:08;;;;;;;2.28;1.15;;;;;;;;;;5101160;28;20287;-83
2022/07/27 06:17:36;;;;;;;2.10;1.10;;;;;;;;;;5101462;28;20229;-82
2022/07/27 06:20:04;;;;;;;1.02;1.00;;;;;;;;;;5101069;28;20225;-82
2022/07/27 06:22:31;;;;;;;4.28;1.10;;;;;;;;;;5100385;28;20258;-82
2022/07/27 06:24:58;;;;;;;2.70;1.00;;;;;;;;;;5100870;28;20253;-83
2022/07/27 06:27:26;;;;;;;1.48;0.95;;;;;;;;;;5101478;28;20696;-82
2022/07/27 06:29:53;;;;;;;4.03;1.08;;;;;;;;;;5102372;28;20597;-83
2022/07/27 06:32:20;;;;;;;2.47;0.95;;;;;;;;;;5099095;28;20214;-82
2022/07/27 06:34:48;;;;;;;3.50;1.02;;;;;;;;;;5099251;28;20201;-84
2022/07/27 06:37:15;;;;;;;1.13;1.02;;;;;;;;;;5098186;28;20185;-82
2022/07/27 06:39:43;;;;;;;2.13;1.17;;;;;;;;;;5099396;28;20281;-83
2022/07/27 06:42:12;;;;;;;1.15;0.93;;;;;;;;;;5098397;28;20240;-83
2022/07/27 06:44:41;;;;;;;3.15;1.10;;;;;;;;;;5097516;28;20204;-83
2022/07/27 06:47:08;;;;;;;3.60;1.25;;;;;;;;;;5098581;28;20568;-83
2022/07/27 06:49:35;;;;;;;3.10;1.13;;;;;;;;;;5093588;28;21724;-83
2022/07/27 06:52:02;;;;;;;1.75;0.95;;;;;;;;;;5088757;28;20216;-83
2022/07/27 06:54:29;;;;;;;4.07;1.27;;;;;;;;;;5097979;28;20208;-83
2022/07/27 06:56:56;;;;;;;1.40;0.90;;;;;;;;;;5093647;28;20212;-83
2022/07/27 06:59:23;;;;;;;2.80;1.30;;;;;;;;;;5095733;28;20225;-83
2022/07/27 07:01:52;;;;;;;3.03;1.05;;;;;;;;;;5095080;28;20204;-84
2022/07/27 07:04:19;;;;;;;2.63;0.90;;;;;;;;;;5095674;28;20244;-83
2022/07/27 07:06:46;;;;;;;2.47;1.27;;;;;;;;;;5096332;28;20204;-84
2022/07/27 07:09:13;;;;;;;2.20;1.00;;;;;;;;;;5096857;28;20262;-84
2022/07/27 07:11:40;;;;;;;3.42;1.00;;;;;;;;;;5095405;28;20192;-84
2022/07/27 07:14:07;;;;;;;3.63;1.15;;;;;;;;;;5094942;28;20589;-82
2022/07/27 07:16:34;;;;;;;1.70;1.00;;;;;;;;;;5095517;28;20204;-83
2022/07/27 07:19:04;;;;;;;2.63;1.40;;;;;;;;;;5094251;28;20245;-83
2022/07/27 07:21:31;;;;;;;4.45;1.00;;;;;;;;;;5095009;28;20307;-84
2022/07/27 07:23:58;;;;;;;2.90;1.05;;;;;;;;;;5093514;28;20285;-84
2022/07/27 07:26:26;;;;;;;4.78;1.08;;;;;;;;;;5094588;28;20209;-83
2022/07/27 07:28:53;;;;;;;1.60;0.90;;;;;;;;;;5093664;28;20236;-84
2022/07/27 07:31:20;;;;;;;1.40;1.00;;;;;;;;;;5094823;28;20208;-84
2022/07/27 07:33:48;;;;;;;2.17;1.00;;;;;;;;;;5094219;28;20232;-85
2022/07/27 07:36:17;;;;;;;3.70;1.38;;;;;;;;;;5094588;28;20213;-84
2022/07/27 07:38:44;;;;;;;3.78;1.20;;;;;;;;;;5093765;28;20232;-84
2022/07/27 07:41:12;;;;;;;1.30;0.98;;;;;;;;;;5093805;28;20189;-85
2022/07/27 07:43:40;;;;;;;3.90;1.35;;;;;;;;;;5093193;28;20232;-84
2022/07/27 07:46:08;;;;;;;1.35;0.90;;;;;;;;;;5094130;28;20302;-83
2022/07/27 07:48:35;;;;;;;3.53;1.20;;;;;;;;;;5092640;28;20244;-84
2022/07/27 07:51:03;;;;;;;2.90;0.98;;;;;;;;;;5094089;28;20660;-84
2022/07/27 07:53:32;;;;;;;2.63;1.27;;;;;;;;;;5093709;28;20718;-85
2022/07/27 07:55:59;;;;;;;4.53;1.10;;;;;;;;;;5094075;28;20200;-84
2022/07/27 07:58:26;;;;;;;2.20;0.88;;;;;;;;;;5093152;28;20236;-84
2022/07/27 08:00:53;;;;;;;2.10;0.60;;;;;;;;;;5093493;28;20201;-84
2022/07/27 08:03:20;;;;;;;2.40;0.93;;;;;;;;;;5088508;28;20236;-84
2022/07/27 08:05:48;;;;;;;1.85;1.17;;;;;;;;;;5093530;28;20193;-84
2022/07/27 08:08:15;;;;;;;2.45;1.10;;;;;;;;;;5092792;28;20228;-84
2022/07/27 08:10:44;;;;;;;2.58;1.00;;;;;;;;;;5093475;28;20233;-87
2022/07/27 08:13:11;;;;;;;3.88;1.10;;;;;;;;;;5092600;28;20275;-85
2022/07/27 08:15:38;;;;;;;2.20;1.10;;;;;;;;;;5093906;28;20212;-84
2022/07/27 08:18:06;;;;;;;2.85;0.98;;;;;;;;;;5095068;28;20235;-84
2022/07/27 08:20:33;;;;;;;2.17;1.00;;;;;;;;;;5093426;28;20232;-85
2022/07/27 08:23:00;;;;;;;1.45;0.90;;;;;;;;;;5095577;28;20231;-85
2022/07/27 08:25:27;;;;;;;1.02;0.85;;;;;;;;;;5108157;28;20269;-84
2022/07/27 08:27:57;;;;;;;1.42;1.00;;;;;;;;;;5080428;28;20241;-85
2022/07/27 08:30:24;;;;;;;2.60;1.00;;;;;;;;;;5079785;28;20233;-85
2022/07/27 08:32:53;;;;;;;2.83;1.00;;;;;;;;;;5101103;27;20224;-85
2022/07/27 08:35:21;;;;;;;2.10;0.77;;;;;;;;;;5085322;28;20189;-86
2022/07/27 08:37:48;;;;;;;3.60;1.20;;;;;;;;;;5092695;28;20232;-85
2022/07/27 08:40:15;;;;;;;5.18;1.02;;;;;;;;;;5094320;28;20611;-85
2022/07/27 08:42:43;;;;;;;1.88;1.02;;;;;;;;;;5093553;28;20707;-86
2022/07/27 08:45:14;;;;;;;1.77;1.00;;;;;;;;;;5093683;28;20209;-85
2022/07/27 08:47:41;;;;;;;0.95;0.73;;;;;;;;;;5076030;28;20375;-85
2022/07/27 08:50:22;;;;;;;4.47;1.25;;;;;;;;;;5082598;28;20688;-85
2022/07/27 08:52:49;;;;;;;3.10;1.00;;;;;;;;;;5071694;28;20308;-85
2022/07/27 08:55:17;;;;;;;2.22;0.80;;;;;;;;;;5073911;28;20212;-82
2022/07/27 08:57:44;;;;;;;1.85;1.08;;;;;;;;;;5083101;28;20219;-86
2022/07/27 09:00:13;;;;;;;6.63;1.02;;;;;;;;;;5088341;28;20573;-85
2022/07/27 09:02:41;;;;;;;4.00;1.27;;;;;;;;;;5075062;28;20713;-84
2022/07/27 09:05:08;;;;;;;1.63;0.80;;;;;;;;;;5091145;28;20202;-84
2022/07/27 09:07:36;;;;;;;3.60;1.13;;;;;;;;;;5100656;28;20625;-85
2022/07/27 09:10:04;;;;;;;2.10;0.98;;;;;;;;;;5093085;28;20240;-85
2022/07/27 09:12:32;;;;;;;3.15;1.13;;;;;;;;;;5091377;28;20312;-84
2022/07/27 09:15:08;;;;;;;2.45;1.27;;;;;;;;;;5093691;28;20212;-85
2022/07/27 09:17:36;;;;;;;1.27;1.02;;;;;;;;;;5092003;28;20231;-85
2022/07/27 09:20:05;;;;;;;1.90;1.17;;;;;;;;;;5092549;28;20224;-84
2022/07/27 09:22:46;;;;;;;2.22;1.13;;;;;;;;;;5093491;28;20228;-85
2022/07/27 09:25:14;;;;;;;2.22;1.08;;;;;;;;;;5094006;22;20222;-81
2022/07/27 09:27:42;;;;;;;2.70;1.05;;;;;;;;;;5057197;28;20233;-83
2022/07/27 09:30:10;;;;;;;3.05;1.20;;;;;;;;;;5054458;28;20733;-84
2022/07/27 09:32:39;;;;;;;4.03;1.25;;;;;;;;;;5053196;28;20287;-81
2022/07/27 09:35:19;;;;;;;1.65;1.10;;;;;;;;;;5057606;28;20229;-82
2022/07/27 09:37:46;;;;;;;2.30;0.93;;;;;;;;;;5053904;28;20233;-82
2022/07/27 09:40:14;;;;;;;1.83;1.20;;;;;;;;;;5054487;28;20205;-83
2022/07/27 09:42:42;;;;;;;1.80;1.00;;;;;;;;;;5052723;28;20767;-83
2022/07/27 09:45:24;;;;;;;3.50;1.38;;;;;;;;;;5055281;28;20803;-83
2022/07/27 09:47:52;;;;;;;2.10;1.30;;;;;;;;;;5052270;28;20226;-85
2022/07/27 09:50:22;;;;;;;1.98;1.45;;;;;;;;;;5053283;28;20218;-84
2022/07/27 09:52:49;;;;;;;2.70;1.27;;;;;;;;;;5051126;28;20325;-84
2022/07/27 09:55:20;;;;;;;4.00;1.33;;;;;;;;;;5051664;28;20218;-84
2022/07/27 09:57:54;;;;;;;2.83;1.27;;;;;;;;;;5053682;28;20779;-83
2022/07/27 10:00:21;;;;;;;2.10;1.23;;;;;;;;;;5038951;28;20565;-83
2022/07/27 10:02:49;;;;;;;3.80;1.10;;;;;;;;;;5054186;28;20230;-84
2022/07/27 10:05:20;;;;;;;4.30;1.35;;;;;;;;;;5053582;28;20245;-83
2022/07/27 10:07:47;;;;;;;3.72;1.45;;;;;;;;;;5054828;28;20262;-84
2022/07/27 10:10:15;;;;;;;3.70;1.30;;;;;;;;;;5054985;28;20226;-83
2022/07/27 10:12:43;;;;;;;2.28;0.88;;;;;;;;;;5039346;28;20236;-84
2022/07/27 10:15:11;;;;;;;2.88;1.02;;;;;;;;;;5053466;28;20232;-84
2022/07/27 10:17:39;;;;;;;3.35;1.20;;;;;;;;;;5055565;28;20233;-83
2022/07/27 10:20:08;;;;;;;3.38;1.20;;;;;;;;;;5060232;28;20445;-83
2022/07/27 10:22:53;;;;;;;2.20;1.10;;;;;;;;;;5058505;28;20252;-82
2022/07/27 10:25:20;;;;;;;2.58;1.30;;;;;;;;;;5057122;28;20234;-83
2022/07/27 10:27:48;;;;;;;1.75;1.23;;;;;;;;;;5060241;28;20241;-81
2022/07/27 10:30:17;;;;;;;2.75;1.17;;;;;;;;;;5058584;28;20233;-83
2022/07/27 10:32:45;;;;;;;2.13;0.80;;;;;;;;;;5058963;28;20233;-82
2022/07/27 10:35:27;;;;;;;2.80;1.30;;;;;;;;;;5064332;28;20298;-82
2022/07/27 10:38:09;;;;;;;2.10;1.25;;;;;;;;;;5062720;28;20262;-83
2022/07/27 10:40:37;;;;;;;4.03;1.35;;;;;;;;;;5060070;28;20297;-82
2022/07/27 10:43:08;;;;;;;2.75;1.38;;;;;;;;;;5064930;28;20237;-81
2022/07/27 10:45:40;;;;;;;1.55;1.05;;;;;;;;;;5066552;28;20234;-82
2022/07/27 10:48:07;;;;;;;2.13;1.23;;;;;;;;;;5065378;28;20311;-82
2022/07/27 10:50:34;;;;;;;4.55;1.58;;;;;;;;;;5063253;28;20545;-82
2022/07/27 10:53:03;;;;;;;1.38;1.05;;;;;;;;;;5078807;28;20241;-83
2022/07/27 10:55:48;;;;;;;2.67;1.08;;;;;;;;;;5074471;28;20225;-87
2022/07/27 10:58:33;;;;;;;2.05;1.10;;;;;;;;;;5072987;28;20240;-85
2022/07/27 11:01:01;;;;;;;2.50;1.25;;;;;;;;;;5072409;28;20220;-85
2022/07/27 11:03:31;;;;;;;2.88;1.58;;;;;;;;;;5072358;28;20237;-86
2022/07/27 11:06:00;;;;;;;2.13;1.05;;;;;;;;;;5073420;28;20221;-86
2022/07/27 11:08:28;;;;;;;3.17;0.90;;;;;;;;;;5074550;28;20259;-85
2022/07/27 11:10:56;;;;;;;2.15;1.20;;;;;;;;;;5073999;28;20464;-87
2022/07/27 11:13:24;;;;;;;1.60;1.13;;;;;;;;;;5072908;28;20255;-85
2022/07/27 11:15:52;;;;;;;2.75;1.38;;;;;;;;;;5072780;28;20709;-86
2022/07/27 11:18:19;;;;;;;1.88;1.23;;;;;;;;;;5073225;28;20233;-87
2022/07/27 11:20:46;;;;;;;4.47;1.23;;;;;;;;;;5080848;28;20201;-88
2022/07/27 11:23:19;;;;;;;3.35;1.10;;;;;;;;;;5072793;28;20241;-88
2022/07/27 11:26:00;;;;;;;2.72;1.38;;;;;;;;;;5073155;28;20248;-87
2022/07/27 11:28:31;;;;;;;2.75;1.70;;;;;;;;;;5073025;28;20696;-88
2022/07/27 11:30:58;;;;;;;2.70;1.02;;;;;;;;;;5072262;28;20225;-87
2022/07/27 11:33:25;;;;;;;4.30;1.30;;;;;;;;;;5068313;28;20233;-88
2022/07/27 11:35:53;;;;;;;2.17;0.80;;;;;;;;;;5073274;28;20682;-85
2022/07/27 11:38:21;;;;;;;2.15;1.20;;;;;;;;;;5072350;28;20256;-86
2022/07/27 11:40:50;;;;;;;2.42;1.10;;;;;;;;;;5073158;28;20186;-87
2022/07/27 11:43:37;;;;;;;2.00;1.17;;;;;;;;;;5072028;28;20236;-88
2022/07/27 11:46:12;;;;;;;1.35;1.00;;;;;;;;;;5072816;28;20649;-88
2022/07/27 11:48:39;;;;;;;4.00;1.33;;;;;;;;;;5072295;28;20260;-88
2022/07/27 11:51:06;;;;;;;1.67;0.90;;;;;;;;;;5069485;28;20218;-88
2022/07/27 11:53:33;;;;;;;1.50;1.13;;;;;;;;;;5052234;28;20737;-88
2022/07/27 11:56:00;;;;;;;2.78;1.23;;;;;;;;;;5052663;28;20230;-88
2022/07/27 11:58:27;;;;;;;1.40;1.23;;;;;;;;;;5052932;28;20233;-87
2022/07/27 12:00:56;;;;;;;1.20;0.90;;;;;;;;;;5060297;28;20213;-87
2022/07/27 12:03:24;;;;;;;1.25;1.00;;;;;;;;;;5053047;28;20278;-86
2022/07/27 12:05:52;;;;;;;1.13;0.90;;;;;;;;;;5053451;28;20229;-84
2022/07/27 12:08:19;;;;;;;2.08;1.17;;;;;;;;;;5052779;28;20237;-87
2022/07/27 12:10:57;;;;;;;1.75;1.05;;;;;;;;;;5052039;28;20279;-87
2022/07/27 12:13:32;;;;;;;1.48;1.13;;;;;;;;;;5051558;28;20237;-85
2022/07/27 12:16:00;;;;;;;1.67;0.90;;;;;;;;;;5051514;28;20229;-88
2022/07/27 12:18:27;;;;;;;2.25;1.00;;;;;;;;;;5051470;28;20241;-87
2022/07/27 12:20:54;;;;;;;1.58;0.90;;;;;;;;;;5051596;28;20232;-86
2022/07/27 12:23:29;;;;;;;1.17;1.00;;;;;;;;;;5051197;28;20236;-87
2022/07/27 12:25:56;;;;;;;1.95;0.90;;;;;;;;;;5051474;28;20605;-86
2022/07/27 12:28:26;;;;;;;1.25;0.95;;;;;;;;;;5050895;28;20233;-86
2022/07/27 12:30:53;;;;;;;1.65;1.00;;;;;;;;;;5052140;28;20618;-85
2022/07/27 12:33:33;;;;;;;1.25;1.15;;;;;;;;;;5051192;28;20233;-85
2022/07/27 12:36:01;;;;;;;2.25;1.13;;;;;;;;;;5052197;28;20625;-85
2022/07/27 12:38:37;;;;;;;2.88;1.23;;;;;;;;;;5051759;28;20237;-86
2022/07/27 12:41:04;;;;;;;1.48;1.08;;;;;;;;;;5051746;28;20285;-87
2022/07/27 12:43:31;;;;;;;1.60;1.00;;;;;;;;;;5050224;28;20260;-86
2022/07/27 12:45:58;;;;;;;1.25;1.10;;;;;;;;;;5051224;28;20270;-87
2022/07/27 12:48:26;;;;;;;1.15;0.80;;;;;;;;;;5050774;28;20241;-87
2022/07/27 12:50:59;;;;;;;1.05;0.88;;;;;;;;;;5051155;28;20230;-86
2022/07/27 12:53:26;;;;;;;1.92;0.70;;;;;;;;;;5050146;28;20239;-86
2022/07/27 12:55:55;;;;;;;1.55;0.90;;;;;;;;;;5050955;28;20248;-86
2022/07/27 12:58:22;;;;;;;4.43;1.17;;;;;;;;;;5050923;28;20236;-86
2022/07/27 13:00:49;;;;;;;0.93;0.80;;;;;;;;;;5050930;28;20209;-84
2022/07/27 13:03:16;;;;;;;1.10;1.00;;;;;;;;;;5050267;28;20241;-86
2022/07/27 13:05:44;;;;;;;2.95;0.80;;;;;;;;;;5050893;28;20221;-86
2022/07/27 13:08:12;;;;;;;0.90;0.90;;;;;;;;;;5050885;28;20238;-86
2022/07/27 13:10:39;;;;;;;1.65;0.98;;;;;;;;;;5051158;28;20229;-86
2022/07/27 13:13:07;;;;;;;1.45;0.85;;;;;;;;;;5050213;28;20249;-86
2022/07/27 13:15:34;;;;;;;2.42;1.17;;;;;;;;;;5051594;28;20230;-87
2022/07/27 13:18:01;;;;;;;2.90;0.80;;;;;;;;;;5050172;28;20229;-85
2022/07/27 13:20:28;;;;;;;2.20;1.00;;;;;;;;;;5050775;28;20198;-86
2022/07/27 13:22:55;;;;;;;3.20;1.00;;;;;;;;;;5055321;28;20230;-81
2022/07/27 13:25:24;;;;;;;1.08;0.80;;;;;;;;;;5060073;28;20253;-82
2022/07/27 13:27:51;;;;;;;4.93;1.08;;;;;;;;;;5059635;28;20238;-81
2022/07/27 13:30:18;;;;;;;1.23;0.70;;;;;;;;;;5054000;28;20202;-79
2022/07/27 13:32:46;;;;;;;1.00;0.70;;;;;;;;;;5068615;28;20245;-83
2022/07/27 13:35:15;;;;;;;0.88;0.77;;;;;;;;;;5074115;28;20229;-84
2022/07/27 13:37:42;;;;;;;1.98;0.98;;;;;;;;;;5053601;28;20233;-83
2022/07/27 13:40:09;;;;;;;3.05;1.17;;;;;;;;;;5046653;28;20206;-82
2022/07/27 13:42:38;;;;;;;1.17;0.55;;;;;;;;;;5033073;28;20284;-82
2022/07/27 13:45:05;;;;;;;0.93;0.88;;;;;;;;;;5034598;28;20235;-84
2022/07/27 13:47:33;;;;;;;1.42;0.52;;;;;;;;;;5044634;28;20230;-83
2022/07/27 13:50:00;;;;;;;1.95;1.08;;;;;;;;;;5067415;28;20739;-83
2022/07/27 13:52:27;;;;;;;0.47;0.47;;;;;;;;;;5056689;28;20287;-83
2022/07/27 13:54:54;;;;;;;2.78;0.80;;;;;;;;;;5056006;28;20253;-83
2022/07/27 13:57:22;;;;;;;3.30;1.95;;;;;;;;;;5057984;28;20248;-83
2022/07/27 13:59:51;;;;;;;1.90;1.00;;;;;;;;;;5055772;28;20238;-83
2022/07/27 14:02:18;;;;;;;0.80;0.70;;;;;;;;;;5055241;28;20202;-84
2022/07/27 14:04:46;;;;;;;1.60;1.00;;;;;;;;;;5056557;28;20226;-83
2022/07/27 14:07:13;;;;;;;1.60;0.95;;;;;;;;;;5057388;28;20216;-83
2022/07/27 14:12:25;;;;;;;3.33;1.10;;;;;;;;;;5057234;28;20241;-84
2022/07/27 14:14:53;;;;;;;2.45;1.02;;;;;;;;;;5056832;28;20572;-83
2022/07/27 14:17:20;;;;;;;2.00;1.00;;;;;;;;;;5056180;28;20340;-83
2022/07/27 14:19:48;;;;;;;1.83;0.60;;;;;;;;;;5056151;28;20689;-83
2022/07/27 14:22:15;;;;;;;2.95;1.08;;;;;;;;;;5055683;28;20197;-83
2022/07/27 14:24:42;;;;;;;0.93;0.70;;;;;;;;;;5055828;28;20245;-84
2022/07/27 14:27:09;;;;;;;1.90;0.70;;;;;;;;;;5055048;28;20221;-83
2022/07/27 14:29:36;;;;;;;2.38;1.05;;;;;;;;;;5054266;28;20193;-84
2022/07/27 14:32:05;;;;;;;3.05;0.75;;;;;;;;;;5045146;28;20234;-84
2022/07/27 14:34:32;;;;;;;1.45;0.70;;;;;;;;;;5054567;28;20222;-84
2022/07/27 14:36:59;;;;;;;1.25;0.80;;;;;;;;;;5037690;28;20211;-83
2022/07/27 14:39:26;;;;;;;1.23;0.70;;;;;;;;;;5034411;28;20222;-81
2022/07/27 14:41:53;;;;;;;1.70;0.90;;;;;;;;;;5034236;28;20758;-83
2022/07/27 14:44:20;;;;;;;1.45;0.70;;;;;;;;;;5033553;28;20249;-83
2022/07/27 14:46:47;;;;;;;1.17;0.77;;;;;;;;;;5037231;28;20265;-82
2022/07/27 14:49:20;;;;;;;1.20;0.80;;;;;;;;;;5038703;28;20238;-83
2022/07/27 14:51:47;;;;;;;3.15;0.75;;;;;;;;;;5036830;28;20207;-83
2022/07/27 14:54:14;;;;;;;1.20;0.68;;;;;;;;;;5037244;28;20293;-82
2022/07/27 14:56:41;;;;;;;1.83;0.77;;;;;;;;;;5038946;28;20207;-84
2022/07/27 14:59:08;;;;;;;1.55;0.98;;;;;;;;;;5055152;28;20397;-86